WetterOnline ( https://www.wetteronline.de )

Wetter aktuell Boizenburg

Aktuelles Wetter: Boizenburg (46m)

6-stündlich | Neueste Meldungen
Ortszeit Temperatur Wetter
Mi, 17.07. 14:00 19.1° C leichter Regen
Mi, 17.07. 8:00 16.2° C bewölkt
Mi, 17.07. 2:00 15.3° C wolkenlos
Di, 16.07. 20:00 21.4° C wolkig
Di, 16.07. 14:00 24.2° C wolkig
Di, 16.07. 8:00 16.5° C bewölkt
Di, 16.07. 2:00 16.6° C bewölkt
Mo, 15.07. 20:00 23.3° C wolkig
Ortszeit Temperatur Wetter
Mi, 17.07. 17:30 18.2° C bedeckt
Mi, 17.07. 17:20 18.2° C bedeckt
Mi, 17.07. 17:10 20.1° C bewölkt
Mi, 17.07. 17:00 21.0° C bewölkt
Mi, 17.07. 16:50 21.0° C bewölkt
Mi, 17.07. 16:40 20.4° C bedeckt
Mi, 17.07. 16:30 19.8° C bewölkt
Mi, 17.07. 16:00 18.9° C bewölkt
Mi, 17.07. 15:30 20.0° C bedeckt
Mi, 17.07. 15:00 19.6° C bedeckt
Mi, 17.07. 14:30 19.7° C bewölkt
Ortszeit Relative Feuchte Sichtweite
Mi, 17.07. 14:00 73% 35 km
Mi, 17.07. 8:00 87% 40 km
Mi, 17.07. 2:00 89% 60 km
Di, 16.07. 20:00 62% 55 km
Di, 16.07. 14:00 61% 60 km
Di, 16.07. 8:00 95% 20 km
Di, 16.07. 2:00 79% 60 km
Mo, 15.07. 20:00 56% >70 km
Ortszeit Relative Feuchte Sichtweite
Mi, 17.07. 17:30 80% 55 km
Mi, 17.07. 17:20 80% -
Mi, 17.07. 17:10 67% -
Mi, 17.07. 17:00 68% 55 km
Mi, 17.07. 16:50 68% -
Mi, 17.07. 16:40 76% -
Mi, 17.07. 16:30 78% >70 km
Mi, 17.07. 16:00 85% 45 km
Mi, 17.07. 15:30 73% 45 km
Mi, 17.07. 15:00 75% >70 km
Mi, 17.07. 14:30 76% >70 km
Ortszeit Niederschlagsmenge Niederschlagsart
Mi, 17.07. 14:00 0.1 l/m2 in 6 Std. Regen
Mi, 17.07. 8:00 0.1 l/m2 in 12 Std. Regen
Mi, 17.07. 2:00 0.1 l/m2 in 6 Std. Regen
Di, 16.07. 20:00 2 l/m2 in 12 Std. Regen
Di, 16.07. 14:00 0.0 l/m2 in 6 Std. -
Di, 16.07. 8:00 4 l/m2 in 12 Std. Regen
Di, 16.07. 2:00 0.0 l/m2 in 6 Std. -
Mo, 15.07. 20:00 0.0 l/m2 in 12 Std. -
Ortszeit Niederschlagsmenge Niederschlagsart
Mi, 17.07. 17:30 <0.05 l/m2 in 30 Min Schnee
Mi, 17.07. 17:20 keine Meldung -
Mi, 17.07. 17:10 keine Meldung -
Mi, 17.07. 17:00 <0.05 l/m2 in 1 Std. Regen
Mi, 17.07. 16:50 keine Meldung -
Mi, 17.07. 16:40 keine Meldung -
Mi, 17.07. 16:30 <0.05 l/m2 in 30 Min Schnee
Mi, 17.07. 16:00 0.3 l/m2 in 1 Std. Regen
Mi, 17.07. 15:30 0.0 l/m2 in 30 Min -
Mi, 17.07. 15:00 <0.05 l/m2 in 1 Std. Regen
Mi, 17.07. 14:30 <0.05 l/m2 in 30 Min Schneeregen
Ortszeit Stärke Spitze Richtung
km/h Bft. km/h Grad Sektor
Mi, 17.07. 14:00 18 3 40 250° W
Mi, 17.07. 8:00 15 3 33 220° SW
Mi, 17.07. 2:00 11 2 29 200° S
Di, 16.07. 20:00 11 2 40 220° SW
Di, 16.07. 14:00 14 3 25 250° W
Di, 16.07. 8:00 6 1 19 90° O
Di, 16.07. 2:00 11 2 18 80° O
Mo, 15.07. 20:00 4 1 29 70° O
Ortszeit Stärke Spitze Richtung
km/h Bft. km/h Grad Sektor
Mi, 17.07. 17:30 17 3 39 300° NW
Mi, 17.07. 17:20 17 3 - 300° NW
Mi, 17.07. 17:10 18 3 - 260° W
Mi, 17.07. 17:00 14 3 25 260° W
Mi, 17.07. 16:50 14 3 - 260° W
Mi, 17.07. 16:40 11 2 - 240° SW
Mi, 17.07. 16:30 14 3 25 220° SW
Mi, 17.07. 16:00 9 2 30 230° SW
Mi, 17.07. 15:30 17 3 26 220° SW
Mi, 17.07. 15:00 15 3 30 220° SW
Mi, 17.07. 14:30 17 3 30 220° SW
Ortszeit Untergrenze Bedeckung Gattung
total tief tief mittel hoch
Mi, 17.07. 14:00 750 m 7/8 7/8 - - -
Mi, 17.07. 8:00 480 m 7/8 7/8 - - -
Mi, 17.07. 2:00 - 0/8 0/8 - - -
Di, 16.07. 20:00 3000 m 5/8 5/8 - - -
Di, 16.07. 14:00 1110 m 6/8 4/8 - - -
Di, 16.07. 8:00 2100 m 8/8 5/8 - - -
Di, 16.07. 2:00 5400 m 8/8 7/8 - - -
Mo, 15.07. 20:00 8700 m 7/8 0/8 - - -
Ortszeit Bedeckungsgrad in Achtel und Wolkenuntergrenze
Mi, 17.07. 17:30 5(870m) 7(1500m) 8(2100m)
Mi, 17.07. 17:20 5(870m) 7(1500m) 8(2100m)
Mi, 17.07. 17:10 7
Mi, 17.07. 17:00 4(870m) 6(1230m) 7(2100m)
Mi, 17.07. 16:50 4(870m) 6(1230m) 7(2100m)
Mi, 17.07. 16:40 8
Mi, 17.07. 16:30 3(810m) 7(1800m) 7(2100m)
Mi, 17.07. 16:00 3(600m) 7(810m) 7(2100m)
Mi, 17.07. 15:30 2(630m) 7(810m) 8(2400m)
Mi, 17.07. 15:00 2(750m) 6(1800m) 8(2100m)
Mi, 17.07. 14:30 2(780m) 6(2400m) 7(2700m)
Ortszeit Luftdruck NN (hPa) Tendenz (hPa in 3 Std.)
Mi, 17.07. 14:00 1018 + 1,7
Mi, 17.07. 8:00 1015 + 1,3
Mi, 17.07. 2:00 1013 + 0,5
Di, 16.07. 20:00 1010 + 0,3
Di, 16.07. 14:00 1009 - 0,2
Di, 16.07. 8:00 1009 - 1,0
Di, 16.07. 2:00 1010 - 0,7
Mo, 15.07. 20:00 1012 - 0,7
Ortszeit Luftdruck NN (hPa) Tendenz (hPa in 3 Std.)
Mi, 17.07. 17:30 1020 + 1,3
Mi, 17.07. 17:20 1020 keine Meldung
Mi, 17.07. 17:10 1019 keine Meldung
Mi, 17.07. 17:00 1019 + 1,0
Mi, 17.07. 16:50 1019 keine Meldung
Mi, 17.07. 16:40 1019 keine Meldung
Mi, 17.07. 16:30 1019 + 1,1
Mi, 17.07. 16:00 1019 + 1,3
Mi, 17.07. 15:30 1019 + 1,3
Mi, 17.07. 15:00 1019 + 1,6
Mi, 17.07. 14:30 1018 + 1,7
Ortszeit Schneehöhe (cm)
Mi, 17.07. 14:00 0
Mi, 17.07. 8:00 0
Mi, 17.07. 2:00 0
Di, 16.07. 20:00 0
Di, 16.07. 14:00 0
Di, 16.07. 8:00 0
Di, 16.07. 2:00 0
Mo, 15.07. 20:00 0
Ortszeit Schneehöhe (cm)
Mi, 17.07. 17:30 0
Mi, 17.07. 17:20 0
Mi, 17.07. 17:10 -
Mi, 17.07. 17:00 0
Mi, 17.07. 16:50 0
Mi, 17.07. 16:40 -
Mi, 17.07. 16:30 0
Mi, 17.07. 16:00 0
Mi, 17.07. 15:30 0
Mi, 17.07. 15:00 0
Mi, 17.07. 14:30 0
Link zu dieser Seite / Seite empfehlen

Das Wetter in ...